ナンディ の空港の天気 - METARとTAF

ナンディ国際空港 ( NFFN / NAN ) - フィジー ナンディ (ビティレブ島)
飛行場実況気象(Metar)
観測時間09/30 17:00 FJT (09/30 05:00 UTC)
風向・風速南西 3m/s
視程10km以上
天気現象弱いしゅう雨
少しの雲 雲底高度 550m
全天の4割程度の雲 雲底高度 730m
全天の8割程度の雲 雲底高度 1340m
気温27℃
湿度89%
気圧1009hPa
METARNFFN 300500Z 23005KT 9999 -SHRA FEW018CB SCT024TCU BKN044 27/25 Q1009 TEMPO 5000 SHRA
過去の天気等 Google飛行場航空写真 Wunderground天気予報

過去48時間のMETAR

飛行場予報(TAF)
発表時間: 9/30 17:16 FJT (9/30 05:16 UTC)
予報対象時間: 30日18時 FJT ~ 1日18時 FJT
風向・風速西 4m/s
視程10km以上
全天の4割程度の雲 雲底高度 610m
全天の8割程度の雲 雲底高度 1370m
30日18時 FJT ~ 30日20時 FJT に 確率 40% で一時的に
視程5000m
天気現象しゅう雨
少しの積乱雲 雲底高度 550m
30日20時 FJT から
風向・風速南東 3m/s
視程10km以上
全天の4割程度の雲 雲底高度 850m
全天の8割程度の雲 雲底高度 3050m
30日20時 FJT ~ 30日24時 FJT に 確率 30% で一時的に
視程5000m
天気現象しゅう雨
全天の8割程度の雲 雲底高度 460m
TAF NFFN 300516Z 3006/0106 26007KT 9999 SCT020 BKN045
PROB40 TEMPO 3006/3008 5000 SHRA FEW018CB
FM300800 14006KT 9999 SCT028 BKN100
PROB30 TEMPO 3008/3012 5000 SHRA BKN015